Time;durP1;ratioP1;P1;durP2;ratioP2;P2;SDS_P1;SDS_P2;PMS_P1;PMS_P2;Temp;Humidity;BMP_temperature;BMP_pressure;BME280_temperature;BME280_humidity;BME280_pressure;Samples;Min_cycle;Max_cycle;Signal;HPM_P1;HPM_P2
2021/06/10 00:00:15;;;;;;;12.87;11.60;;;18.80;99.90;;;;;;5049882;28;20234;-66
2021/06/10 00:02:43;;;;;;;12.10;11.00;;;18.80;99.90;;;;;;5064625;28;20286;-67
2021/06/10 00:05:14;;;;;;;13.43;11.70;;;18.80;99.90;;;;;;5050125;28;20256;-66
2021/06/10 00:07:42;;;;;;;13.33;11.93;;;18.80;99.90;;;;;;5049330;28;20230;-66
2021/06/10 00:10:13;;;;;;;15.03;12.60;;;18.60;99.90;;;;;;5065324;28;20243;-66
2021/06/10 00:12:42;;;;;;;14.37;12.97;;;18.60;99.90;;;;;;5049154;28;20313;-66
2021/06/10 00:15:14;;;;;;;13.57;12.07;;;18.50;99.90;;;;;;5050035;28;20315;-66
2021/06/10 00:17:42;;;;;;;12.90;11.70;;;18.50;99.90;;;;;;5049105;28;20256;-66
2021/06/10 00:20:14;;;;;;;15.83;12.87;;;18.40;99.90;;;;;;5049643;28;20246;-66
2021/06/10 00:22:43;;;;;;;13.07;11.97;;;18.40;99.90;;;;;;5048893;28;20700;-66
2021/06/10 00:25:13;;;;;;;14.50;12.23;;;18.30;99.90;;;;;;5050005;28;20237;-66
2021/06/10 00:27:41;;;;;;;12.53;11.37;;;18.30;99.90;;;;;;5048877;28;20287;-66
2021/06/10 00:30:15;;;;;;;13.73;12.33;;;18.40;99.90;;;;;;5049530;28;20244;-66
2021/06/10 00:32:43;;;;;;;13.50;12.20;;;18.40;99.90;;;;;;5049043;28;20246;-66
2021/06/10 00:35:11;;;;;;;14.40;12.80;;;18.40;99.90;;;;;;5049964;28;20691;-66
2021/06/10 00:37:40;;;;;;;13.77;12.37;;;18.40;99.90;;;;;;5049019;28;20307;-66
2021/06/10 00:40:09;;;;;;;12.53;11.43;;;18.40;99.90;;;;;;5049564;28;20596;-66
2021/06/10 00:42:40;;;;;;;14.50;11.80;;;18.50;99.90;;;;;;5048801;28;20466;-66
2021/06/10 00:45:09;;;;;;;13.10;11.83;;;18.50;99.90;;;;;;5049699;28;20245;-66
2021/06/10 00:47:37;;;;;;;12.73;11.60;;;18.50;99.90;;;;;;5048636;28;20269;-67
2021/06/10 00:50:06;;;;;;;14.37;12.97;;;18.40;99.90;;;;;;5045870;28;20655;-66
2021/06/10 00:52:38;;;;;;;14.20;12.70;;;18.40;99.90;;;;;;5048162;28;20250;-66
2021/06/10 00:55:07;;;;;;;14.40;13.13;;;18.30;99.90;;;;;;5049303;28;20275;-66
2021/06/10 00:57:34;;;;;;;13.13;11.83;;;18.30;99.90;;;;;;5047841;28;20238;-67
2021/06/10 01:00:07;;;;;;;14.10;12.80;;;18.20;99.90;;;;;;5048708;28;20238;-67
2021/06/10 01:02:34;;;;;;;12.33;11.23;;;18.20;99.90;;;;;;5048004;28;20287;-67
2021/06/10 01:05:02;;;;;;;12.93;11.73;;;18.10;99.90;;;;;;5049364;28;20234;-67
2021/06/10 01:07:37;;;;;;;12.53;11.17;;;18.20;99.90;;;;;;5048549;28;20753;-66
2021/06/10 01:10:09;;;;;;;14.03;12.83;;;18.10;99.90;;;;;;5048856;28;20319;-66
2021/06/10 01:12:45;;;;;;;13.83;12.27;;;18.10;99.90;;;;;;5048053;28;20232;-66
2021/06/10 01:15:15;;;;;;;14.43;13.17;;;18.00;99.90;;;;;;5047737;28;20299;-66
2021/06/10 01:17:46;;;;;;;14.20;12.97;;;18.00;99.90;;;;;;5048142;28;20261;-66
2021/06/10 01:20:18;;;;;;;13.37;12.17;;;18.00;99.90;;;;;;5048228;28;20616;-66
2021/06/10 01:23:06;;;;;;;13.77;12.30;;;18.10;99.90;;;;;;5052080;28;20319;-66
2021/06/10 01:25:44;;;;;;;13.97;12.70;;;18.10;99.90;;;;;;5060565;28;20262;-66
2021/06/10 01:28:15;;;;;;;13.83;12.53;;;18.10;99.90;;;;;;5047827;28;20291;-66
2021/06/10 01:30:46;;;;;;;13.80;12.50;;;17.90;99.90;;;;;;5048039;28;21459;-66
2021/06/10 01:33:18;;;;;;;14.60;13.23;;;18.00;99.90;;;;;;5048365;28;20238;-66
2021/06/10 01:35:51;;;;;;;14.10;12.80;;;17.80;99.90;;;;;;5048373;28;20246;-66
2021/06/10 01:38:20;;;;;;;17.97;13.23;;;17.80;99.90;;;;;;5048309;28;20257;-66
2021/06/10 01:40:49;;;;;;;15.00;13.60;;;17.80;99.90;;;;;;5048375;28;20580;-66
2021/06/10 01:43:19;;;;;;;16.20;14.50;;;17.70;99.90;;;;;;5047637;28;20700;-66
2021/06/10 01:45:49;;;;;;;15.73;14.10;;;17.60;99.90;;;;;;5048335;28;20273;-66
2021/06/10 01:48:19;;;;;;;14.67;13.20;;;17.60;99.90;;;;;;5047053;28;20236;-66
2021/06/10 01:50:49;;;;;;;14.43;13.03;;;17.60;99.90;;;;;;5028161;28;20244;-66
2021/06/10 01:53:18;;;;;;;15.20;13.57;;;17.60;99.90;;;;;;5037403;28;20238;-66
2021/06/10 01:55:47;;;;;;;16.17;14.60;;;17.50;99.90;;;;;;5047308;28;20247;-66
2021/06/10 01:58:19;;;;;;;14.63;13.23;;;17.40;99.90;;;;;;5047503;28;20732;-66
2021/06/10 02:00:52;;;;;;;16.40;15.00;;;17.40;99.90;;;;;;5047426;28;20242;-67
2021/06/10 02:03:21;;;;;;;15.83;14.37;;;17.40;99.90;;;;;;5047732;28;20278;-66
2021/06/10 02:05:50;;;;;;;13.33;12.13;;;17.30;99.90;;;;;;5048243;28;20598;-66
2021/06/10 02:08:20;;;;;;;15.80;14.37;;;17.30;99.90;;;;;;5046270;28;20290;-66
2021/06/10 02:10:51;;;;;;;15.60;14.13;;;17.30;99.90;;;;;;5047633;28;20245;-66
2021/06/10 02:13:22;;;;;;;14.90;13.60;;;17.30;99.90;;;;;;5047680;28;20241;-67
2021/06/10 02:15:52;;;;;;;14.93;13.43;;;17.40;99.90;;;;;;5047906;28;20299;-66
2021/06/10 02:18:20;;;;;;;14.03;12.60;;;17.30;99.90;;;;;;5047403;28;20251;-66
2021/06/10 02:20:47;;;;;;;13.37;12.13;;;17.30;99.90;;;;;;5047021;28;20244;-67
2021/06/10 02:23:15;;;;;;;14.63;13.10;;;17.30;99.90;;;;;;5047333;28;20229;-66
2021/06/10 02:25:43;;;;;;;14.60;13.23;;;17.30;99.90;;;;;;5047451;28;20295;-66
2021/06/10 02:28:10;;;;;;;15.40;13.90;;;17.20;99.90;;;;;;5046792;28;20320;-67
2021/06/10 02:30:39;;;;;;;12.97;11.70;;;17.20;99.90;;;;;;5047132;28;20228;-66
2021/06/10 02:33:07;;;;;;;15.00;13.53;;;17.20;99.90;;;;;;5047036;28;20244;-66
2021/06/10 02:35:35;;;;;;;14.90;13.50;;;17.10;99.90;;;;;;5047403;28;20241;-66
2021/06/10 02:38:04;;;;;;;14.77;13.30;;;17.10;99.90;;;;;;5047041;28;20243;-66
2021/06/10 02:40:35;;;;;;;14.50;13.07;;;17.10;99.90;;;;;;5047464;28;20228;-66
2021/06/10 02:43:06;;;;;;;15.87;14.37;;;17.20;99.90;;;;;;5046987;28;20632;-66
2021/06/10 02:45:35;;;;;;;14.47;13.17;;;17.10;99.90;;;;;;5047368;28;20282;-66
2021/06/10 02:48:06;;;;;;;14.20;12.87;;;17.00;99.90;;;;;;5046864;28;20255;-66
2021/06/10 02:50:35;;;;;;;14.40;13.07;;;16.90;99.90;;;;;;5047425;28;20229;-66
2021/06/10 02:53:04;;;;;;;14.33;13.03;;;17.00;99.90;;;;;;5047019;28;20240;-65
2021/06/10 02:55:36;;;;;;;14.40;13.07;;;17.00;99.90;;;;;;5047177;28;20282;-66
2021/06/10 02:58:05;;;;;;;13.27;11.83;;;17.00;99.90;;;;;;5046753;28;20715;-66
2021/06/10 03:00:34;;;;;;;14.07;12.73;;;17.00;99.90;;;;;;5046902;28;20232;-66
2021/06/10 03:03:03;;;;;;;14.63;13.23;;;16.90;99.90;;;;;;5046950;28;20289;-66
2021/06/10 03:05:31;;;;;;;14.00;12.57;;;16.90;99.90;;;;;;5037827;28;20239;-65
2021/06/10 03:07:59;;;;;;;14.60;13.10;;;16.90;99.90;;;;;;5046581;28;20301;-66
2021/06/10 03:10:32;;;;;;;15.37;13.87;;;16.90;99.90;;;;;;5047000;28;20297;-66
2021/06/10 03:13:00;;;;;;;15.80;14.30;;;17.00;99.90;;;;;;5046001;28;20240;-66
2021/06/10 03:15:30;;;;;;;14.83;13.53;;;16.90;99.90;;;;;;5046910;28;20238;-66
2021/06/10 03:17:59;;;;;;;16.50;14.93;;;17.00;99.90;;;;;;5046551;28;20524;-66
2021/06/10 03:20:29;;;;;;;15.70;14.20;;;16.90;99.90;;;;;;5048184;28;20259;-67
2021/06/10 03:22:56;;;;;;;16.87;15.17;;;16.80;99.90;;;;;;5050089;28;20287;-66
2021/06/10 03:25:25;;;;;;;15.37;13.93;;;16.80;99.90;;;;;;5050090;28;20236;-66
2021/06/10 03:27:54;;;;;;;14.37;13.17;;;16.90;99.90;;;;;;5050144;28;20232;-66
2021/06/10 03:30:22;;;;;;;17.27;15.77;;;16.90;99.90;;;;;;5051421;28;20721;-66
2021/06/10 03:32:51;;;;;;;16.73;15.13;;;16.90;99.90;;;;;;5050503;28;20707;-67
2021/06/10 03:35:21;;;;;;;15.40;13.90;;;16.80;99.90;;;;;;5051254;28;20237;-66
2021/06/10 03:37:51;;;;;;;16.33;14.83;;;16.80;99.90;;;;;;5050067;28;20320;-67
2021/06/10 03:40:20;;;;;;;15.80;14.30;;;16.90;99.90;;;;;;5050964;28;20250;-65
2021/06/10 03:42:49;;;;;;;14.93;13.53;;;16.90;99.90;;;;;;5050029;28;20243;-66
2021/06/10 03:45:18;;;;;;;15.33;13.80;;;17.00;99.90;;;;;;5050817;28;20295;-66
2021/06/10 03:47:46;;;;;;;15.73;14.40;;;17.00;99.90;;;;;;5063547;28;20247;-66
2021/06/10 03:50:31;;;;;;;15.90;14.50;;;17.10;99.90;;;;;;4408819;28;10001215;-66
2021/06/10 03:53:00;;;;;;;14.93;13.63;;;17.10;99.90;;;;;;2088781;28;10002081;-66
2021/06/10 03:55:28;;;;;;;17.17;15.57;;;17.00;99.90;;;;;;5050181;28;20470;-66
2021/06/10 03:57:56;;;;;;;16.00;14.50;;;17.10;99.90;;;;;;5049909;28;20306;-66
2021/06/10 04:00:23;;;;;;;15.00;13.50;;;17.10;99.90;;;;;;5030446;28;20245;-66
2021/06/10 04:02:51;;;;;;;14.43;13.13;;;17.10;99.90;;;;;;5035446;28;20242;-66
2021/06/10 04:05:19;;;;;;;16.33;14.73;;;17.30;99.90;;;;;;5050539;28;20255;-66
2021/06/10 04:07:47;;;;;;;16.20;14.77;;;17.20;99.90;;;;;;5049543;28;20308;-66
2021/06/10 04:10:17;;;;;;;16.43;14.83;;;17.10;99.90;;;;;;5050002;28;20618;-66
2021/06/10 04:12:44;;;;;;;14.50;13.17;;;17.00;99.90;;;;;;5048903;28;20790;-66
2021/06/10 04:15:13;;;;;;;15.73;14.23;;;17.10;99.90;;;;;;5049656;28;20668;-66
2021/06/10 04:17:41;;;;;;;15.93;14.43;;;17.10;99.90;;;;;;5048531;28;20227;-67
2021/06/10 04:20:10;;;;;;;14.73;13.23;;;17.00;99.90;;;;;;5049855;28;20240;-65
2021/06/10 04:22:38;;;;;;;16.80;13.77;;;17.10;99.90;;;;;;5048683;28;20240;-66
2021/06/10 04:25:06;;;;;;;15.70;14.33;;;17.10;99.90;;;;;;5049387;28;20240;-66
2021/06/10 04:27:36;;;;;;;16.50;14.90;;;17.30;99.90;;;;;;5048965;28;20723;-66
2021/06/10 04:30:05;;;;;;;17.27;15.67;;;17.20;99.90;;;;;;5049443;28;20236;-66
2021/06/10 04:32:32;;;;;;;17.40;15.90;;;17.20;99.90;;;;;;5044715;28;20232;-65
2021/06/10 04:35:02;;;;;;;17.10;15.60;;;17.20;99.90;;;;;;5029489;28;20234;-66
2021/06/10 04:37:30;;;;;;;17.23;15.57;;;17.10;99.90;;;;;;5031759;28;20721;-66
2021/06/10 04:39:58;;;;;;;17.17;15.57;;;17.10;99.90;;;;;;5047872;28;20248;-66
2021/06/10 04:42:26;;;;;;;17.37;15.80;;;17.20;99.90;;;;;;5048301;28;20323;-66
2021/06/10 04:44:55;;;;;;;17.60;15.90;;;17.20;99.90;;;;;;5049440;28;20239;-66
2021/06/10 04:47:23;;;;;;;18.90;16.93;;;17.30;99.90;;;;;;5049303;28;20238;-66
2021/06/10 04:49:50;;;;;;;17.77;16.07;;;17.30;99.90;;;;;;5049299;28;20650;-66
2021/06/10 04:52:18;;;;;;;17.97;16.37;;;17.40;99.90;;;;;;5048378;28;20315;-67
2021/06/10 04:54:45;;;;;;;17.30;15.73;;;17.40;99.90;;;;;;5047067;28;20254;-66
2021/06/10 04:57:13;;;;;;;18.10;16.37;;;17.40;99.90;;;;;;5040435;28;20305;-66
2021/06/10 04:59:41;;;;;;;17.77;16.07;;;17.50;99.90;;;;;;5048998;28;20235;-66
2021/06/10 05:02:10;;;;;;;17.30;15.70;;;17.50;99.90;;;;;;5048806;28;20239;-66
2021/06/10 05:04:38;;;;;;;16.60;15.10;;;17.50;99.90;;;;;;5028853;28;20697;-66
2021/06/10 05:07:05;;;;;;;17.40;15.60;;;17.60;99.90;;;;;;5028981;28;20324;-66
2021/06/10 05:09:33;;;;;;;16.93;15.30;;;17.60;99.90;;;;;;5048160;28;20229;-66
2021/06/10 05:12:01;;;;;;;17.00;14.53;;;17.70;99.90;;;;;;5048240;28;20249;-66
2021/06/10 05:14:29;;;;;;;16.53;15.00;;;17.80;99.90;;;;;;5048059;28;20700;-66
2021/06/10 05:16:56;;;;;;;15.70;14.30;;;17.90;99.90;;;;;;5046524;28;20241;-66
2021/06/10 05:19:26;;;;;;;17.83;16.07;;;18.00;99.90;;;;;;5048050;28;20263;-67
2021/06/10 05:21:54;;;;;;;17.33;15.63;;;18.00;99.90;;;;;;5047577;28;20241;-67
2021/06/10 05:24:23;;;;;;;17.13;15.53;;;18.00;99.90;;;;;;5036697;28;20252;-66
2021/06/10 05:26:51;;;;;;;18.33;16.40;;;18.00;99.90;;;;;;5047382;28;20597;-66
2021/06/10 05:29:18;;;;;;;18.53;16.90;;;18.00;99.90;;;;;;5047480;28;20232;-66
2021/06/10 05:31:46;;;;;;;16.87;15.27;;;18.00;99.90;;;;;;5047928;28;20253;-67
2021/06/10 05:34:14;;;;;;;16.33;14.73;;;18.10;99.90;;;;;;5047263;28;20222;-67
2021/06/10 05:36:43;;;;;;;16.37;14.87;;;18.10;99.90;;;;;;5048225;28;20743;-67
2021/06/10 05:39:11;;;;;;;18.33;16.50;;;18.40;99.90;;;;;;5047476;28;20335;-67
2021/06/10 05:41:38;;;;;;;18.40;16.83;;;18.50;99.90;;;;;;5047431;28;20233;-67
2021/06/10 05:44:06;;;;;;;18.03;16.33;;;18.70;99.90;;;;;;5047066;28;20598;-67
2021/06/10 05:46:34;;;;;;;18.47;16.87;;;18.80;99.90;;;;;;5048229;28;20773;-67
2021/06/10 05:49:02;;;;;;;19.33;17.63;;;19.00;99.90;;;;;;5045970;28;20573;-66
2021/06/10 05:51:29;;;;;;;18.57;16.97;;;19.20;99.90;;;;;;5046394;28;20253;-67
2021/06/10 05:53:58;;;;;;;19.40;17.27;;;19.40;99.90;;;;;;5047505;28;20779;-66
2021/06/10 05:56:26;;;;;;;16.27;14.43;;;19.70;99.90;;;;;;5037343;28;20292;-67
2021/06/10 05:58:54;;;;;;;15.67;14.27;;;19.90;99.90;;;;;;5041156;28;20254;-67
2021/06/10 06:01:21;;;;;;;14.97;13.67;;;20.20;99.90;;;;;;5034946;28;20248;-67
2021/06/10 06:03:49;;;;;;;15.83;14.33;;;20.50;99.90;;;;;;5045790;28;20368;-66
2021/06/10 06:06:18;;;;;;;13.43;12.10;;;20.70;99.90;;;;;;5047224;28;20775;-66
2021/06/10 06:08:47;;;;;;;14.10;12.57;;;21.00;99.90;;;;;;5046631;28;20699;-66
2021/06/10 06:11:16;;;;;;;13.23;11.83;;;21.10;99.90;;;;;;5047632;28;20246;-67
2021/06/10 06:13:46;;;;;;;11.17;10.13;;;21.30;99.90;;;;;;5046702;28;21398;-66
2021/06/10 06:16:15;;;;;;;10.70;9.70;;;21.40;99.90;;;;;;5047613;28;20246;-66
2021/06/10 06:18:44;;;;;;;12.03;10.00;;;21.50;99.90;;;;;;5046699;28;20347;-67
2021/06/10 06:21:12;;;;;;;10.10;9.10;;;21.70;99.90;;;;;;5044517;28;20262;-66
2021/06/10 06:23:41;;;;;;;10.30;9.30;;;21.90;99.90;;;;;;5044440;28;20249;-66
2021/06/10 06:26:09;;;;;;;10.87;9.27;;;22.10;99.90;;;;;;5045111;28;20246;-66
2021/06/10 06:28:40;;;;;;;9.47;8.57;;;22.20;99.90;;;;;;5043181;28;20575;-66
2021/06/10 06:31:07;;;;;;;11.47;9.57;;;22.40;99.90;;;;;;5044715;28;20331;-66
2021/06/10 06:33:35;;;;;;;11.03;10.03;;;22.70;99.90;;;;;;5043698;28;20339;-67
2021/06/10 06:36:03;;;;;;;10.83;9.73;;;22.80;99.90;;;;;;5040402;28;20247;-67
2021/06/10 06:38:31;;;;;;;11.87;9.20;;;22.90;99.90;;;;;;5039521;28;20319;-67
2021/06/10 06:40:59;;;;;;;9.87;8.87;;;23.00;99.90;;;;;;5039838;28;20243;-66
2021/06/10 06:43:30;;;;;;;9.50;8.47;;;23.40;99.90;;;;;;5041388;28;20245;-66
2021/06/10 06:46:05;;;;;;;8.83;8.00;;;23.60;99.90;;;;;;5041867;28;20586;-67
2021/06/10 06:48:33;;;;;;;10.07;8.20;;;23.90;99.90;;;;;;5041148;28;20255;-66
2021/06/10 06:51:01;;;;;;;7.00;6.30;;;24.20;99.90;;;;;;5042182;28;20269;-66
2021/06/10 06:53:30;;;;;;;8.90;7.97;;;24.40;99.90;;;;;;5042903;28;20240;-66
2021/06/10 06:56:18;;;;;;;9.77;8.73;;;24.80;99.90;;;;;;5042476;28;20676;-67
2021/06/10 06:58:45;;;;;;;8.30;7.50;;;24.90;99.90;;;;;;5042577;28;20231;-67
2021/06/10 07:01:14;;;;;;;8.93;8.13;;;25.00;99.90;;;;;;5042985;28;20349;-67
2021/06/10 07:03:43;;;;;;;9.67;8.67;;;25.00;99.90;;;;;;5042846;28;20249;-67
2021/06/10 07:06:10;;;;;;;9.23;8.50;;;25.10;99.90;;;;;;5042860;28;20237;-67
2021/06/10 07:08:38;;;;;;;8.87;7.97;;;25.20;99.90;;;;;;5042490;28;20250;-66
2021/06/10 07:11:06;;;;;;;9.67;8.30;;;25.20;99.90;;;;;;5042681;28;20531;-67
2021/06/10 07:13:33;;;;;;;9.03;8.20;;;25.30;99.90;;;;;;5042258;28;20298;-67
2021/06/10 07:16:01;;;;;;;8.40;7.70;;;25.40;99.90;;;;;;5042823;28;20240;-67
2021/06/10 07:18:30;;;;;;;9.77;8.80;;;25.70;99.90;;;;;;5042025;28;20640;-67
2021/06/10 07:20:59;;;;;;;12.17;9.17;;;25.70;99.90;;;;;;5042617;28;20756;-67
2021/06/10 07:23:26;;;;;;;7.00;6.40;;;25.60;99.90;;;;;;5043611;28;20301;-66
2021/06/10 07:25:54;;;;;;;9.60;8.60;;;25.70;99.90;;;;;;5044678;28;20248;-67
2021/06/10 07:28:22;;;;;;;9.23;8.27;;;25.90;99.90;;;;;;5043519;28;20244;-66
2021/06/10 07:30:50;;;;;;;10.13;9.13;;;26.10;99.90;;;;;;5044269;28;20648;-66
2021/06/10 07:33:18;;;;;;;8.57;7.77;;;26.00;99.90;;;;;;5043189;28;20242;-66
2021/06/10 07:35:47;;;;;;;11.40;8.67;;;26.10;99.90;;;;;;5043138;28;20233;-67
2021/06/10 07:38:15;;;;;;;9.00;7.70;;;26.00;99.90;;;;;;5042944;28;20239;-66
2021/06/10 07:40:43;;;;;;;8.60;7.90;;;26.10;99.90;;;;;;5042622;28;20969;-67
2021/06/10 07:43:10;;;;;;;10.77;8.93;;;26.20;99.90;;;;;;5043712;28;20384;-67
2021/06/10 07:45:38;;;;;;;6.20;5.60;;;26.50;99.90;;;;;;5041910;28;20617;-66
2021/06/10 07:48:07;;;;;;;7.73;7.03;;;26.70;99.90;;;;;;5043247;28;20249;-67
2021/06/10 07:50:35;;;;;;;10.10;9.20;;;27.00;99.90;;;;;;5043578;28;20241;-67
2021/06/10 07:53:05;;;;;;;8.63;7.70;;;27.10;99.90;;;;;;5043459;28;20242;-67
2021/06/10 07:55:33;;;;;;;9.33;8.53;;;27.30;99.90;;;;;;5043561;28;20235;-67
2021/06/10 07:58:01;;;;;;;8.23;7.43;;;27.40;99.90;;;;;;5043354;28;20230;-67
2021/06/10 08:00:29;;;;;;;8.73;6.97;;;27.50;99.90;;;;;;5043227;28;20326;-66
2021/06/10 08:02:58;;;;;;;9.20;8.30;;;27.70;99.90;;;;;;5043490;28;20436;-66
2021/06/10 08:05:27;;;;;;;7.07;5.80;;;27.70;99.90;;;;;;5043382;28;20337;-67
2021/06/10 08:07:55;;;;;;;8.43;7.73;;;27.80;99.90;;;;;;5045799;28;20238;-67
2021/06/10 08:10:24;;;;;;;6.87;6.03;;;27.90;99.90;;;;;;5047075;28;20243;-67
2021/06/10 08:12:52;;;;;;;8.33;7.53;;;28.40;99.90;;;;;;5046168;28;20239;-67
2021/06/10 08:15:20;;;;;;;7.00;6.40;;;28.70;99.90;;;;;;5047595;28;20297;-67
2021/06/10 08:17:48;;;;;;;7.67;6.27;;;29.00;99.90;;;;;;5046443;28;20235;-67
2021/06/10 08:20:18;;;;;;;6.57;5.97;;;28.60;99.90;;;;;;5046957;28;20239;-67
2021/06/10 08:22:47;;;;;;;8.43;7.63;;;28.50;99.90;;;;;;5046453;28;20325;-67
2021/06/10 08:25:15;;;;;;;8.70;7.80;;;28.30;97.50;;;;;;5046757;28;20610;-66
2021/06/10 08:27:44;;;;;;;7.20;5.73;;;28.00;99.40;;;;;;5046321;28;20523;-67
2021/06/10 08:30:13;;;;;;;8.83;7.03;;;28.00;99.90;;;;;;5046948;28;20298;-67
2021/06/10 08:32:41;;;;;;;7.87;6.97;;;28.20;99.90;;;;;;5046443;28;20257;-66
2021/06/10 08:35:10;;;;;;;9.00;8.00;;;28.40;99.90;;;;;;5046938;28;20588;-67
2021/06/10 08:37:38;;;;;;;9.40;8.37;;;28.40;98.80;;;;;;5045693;28;20247;-67
2021/06/10 08:40:08;;;;;;;8.20;7.40;;;28.40;97.40;;;;;;5060076;28;20297;-66
2021/06/10 08:42:37;;;;;;;8.43;7.63;;;28.50;99.00;;;;;;5045310;28;20710;-66
2021/06/10 08:45:09;;;;;;;7.20;6.30;;;28.60;99.50;;;;;;5046568;28;20246;-66
2021/06/10 08:47:39;;;;;;;11.20;10.07;;;29.00;99.90;;;;;;5046127;28;20294;-66
2021/06/10 08:50:12;;;;;;;10.33;8.43;;;29.00;98.40;;;;;;5046511;28;20385;-66
2021/06/10 08:52:41;;;;;;;8.97;7.60;;;29.30;98.70;;;;;;5045741;28;20722;-67
2021/06/10 08:55:11;;;;;;;10.80;9.60;;;29.60;97.40;;;;;;5046626;28;20247;-66
2021/06/10 08:57:39;;;;;;;6.37;5.67;;;29.60;98.80;;;;;;5045501;28;20786;-67
2021/06/10 09:00:26;;;;;;;9.07;8.17;;;30.20;99.70;;;;;;5044817;28;20236;-67
2021/06/10 09:02:56;;;;;;;7.93;7.13;;;30.50;97.20;;;;;;5044326;28;20263;-66
2021/06/10 09:05:24;;;;;;;7.67;5.47;;;30.50;97.10;;;;;;5045825;28;20676;-67
2021/06/10 09:07:55;;;;;;;6.73;5.60;;;30.70;98.20;;;;;;5046392;28;20231;-66
2021/06/10 09:10:25;;;;;;;5.50;4.93;;;30.70;97.50;;;;;;5046239;28;20243;-67
2021/06/10 09:12:55;;;;;;;6.87;6.20;;;30.60;97.60;;;;;;5045905;28;20245;-67
2021/06/10 09:15:26;;;;;;;7.93;7.13;;;31.10;96.40;;;;;;5045696;28;20239;-67
2021/06/10 09:17:55;;;;;;;7.57;6.07;;;31.30;97.40;;;;;;5045548;28;20279;-67
2021/06/10 09:20:41;;;;;;;8.10;7.33;;;31.70;95.80;;;;;;5045983;28;20722;-67
2021/06/10 09:23:18;;;;;;;8.53;7.73;;;31.20;95.00;;;;;;5045607;28;20654;-67
2021/06/10 09:25:48;;;;;;;7.03;6.30;;;30.90;95.30;;;;;;5045651;28;20240;-67
2021/06/10 09:28:16;;;;;;;7.60;6.90;;;30.70;96.00;;;;;;5045072;28;20612;-66
2021/06/10 09:30:48;;;;;;;10.00;9.17;;;30.80;94.80;;;;;;5045694;28;20301;-66
2021/06/10 09:33:18;;;;;;;11.40;10.30;;;31.30;94.60;;;;;;5045343;28;20251;-67
2021/06/10 09:35:47;;;;;;;9.40;8.40;;;31.40;92.90;;;;;;5045571;28;20231;-67
2021/06/10 09:38:20;;;;;;;7.10;6.40;;;31.20;94.10;;;;;;5044317;28;20235;-66
2021/06/10 09:40:48;;;;;;;8.03;6.53;;;31.10;94.80;;;;;;5044648;28;20240;-67
2021/06/10 09:43:16;;;;;;;8.10;6.73;;;31.30;94.30;;;;;;5044566;28;20322;-67
2021/06/10 09:45:51;;;;;;;7.13;6.50;;;31.60;94.50;;;;;;5044367;28;20809;-67
2021/06/10 09:48:31;;;;;;;8.27;7.53;;;31.80;94.40;;;;;;5044630;28;20243;-66
2021/06/10 09:50:59;;;;;;;7.20;6.27;;;31.80;93.60;;;;;;5045200;28;20248;-66
2021/06/10 09:53:29;;;;;;;8.77;7.87;;;31.50;93.30;;;;;;5044730;28;20285;-67
2021/06/10 09:55:58;;;;;;;9.27;8.13;;;31.30;93.20;;;;;;5045599;28;20361;-66
2021/06/10 09:58:39;;;;;;;10.80;9.80;;;31.30;94.00;;;;;;5044024;28;20232;-66
2021/06/10 10:01:11;;;;;;;11.73;9.37;;;31.50;93.10;;;;;;5044435;28;20310;-67
2021/06/10 10:03:41;;;;;;;7.57;6.87;;;31.40;93.50;;;;;;5044481;28;20235;-67
2021/06/10 10:06:18;;;;;;;9.93;8.90;;;31.50;93.70;;;;;;5044995;28;20246;-67
2021/06/10 10:08:48;;;;;;;8.90;8.03;;;31.80;93.40;;;;;;5044110;28;20246;-67
2021/06/10 10:11:16;;;;;;;8.87;7.73;;;31.80;93.30;;;;;;5044217;28;20241;-67
2021/06/10 10:13:46;;;;;;;8.87;8.03;;;31.70;93.20;;;;;;5043540;28;20876;-67
2021/06/10 10:16:16;;;;;;;8.70;7.80;;;31.60;93.30;;;;;;5044413;28;20600;-66
2021/06/10 10:18:44;;;;;;;9.80;9.00;;;30.90;92.50;;;;;;5051617;28;20236;-66
2021/06/10 10:21:12;;;;;;;12.57;11.17;;;31.00;92.70;;;;;;5044760;28;20238;-66
2021/06/10 10:23:40;;;;;;;9.97;9.03;;;31.00;91.60;;;;;;5043988;28;20266;-66
2021/06/10 10:26:08;;;;;;;9.37;8.47;;;31.10;91.80;;;;;;5044148;28;20241;-66
2021/06/10 10:28:37;;;;;;;10.17;9.27;;;31.30;92.70;;;;;;5043677;28;20303;-66
2021/06/10 10:31:06;;;;;;;10.90;9.77;;;31.10;92.10;;;;;;5043714;28;20354;-66
2021/06/10 10:33:43;;;;;;;6.93;6.33;;;31.00;91.80;;;;;;5044277;28;20720;-66
2021/06/10 10:36:22;;;;;;;8.03;7.30;;;31.20;93.60;;;;;;5051236;28;20243;-66
2021/06/10 10:38:58;;;;;;;8.13;7.10;;;31.70;92.00;;;;;;5037772;28;20246;-66
2021/06/10 10:41:25;;;;;;;7.17;6.47;;;31.80;92.10;;;;;;5044383;28;20241;-66
2021/06/10 10:44:11;;;;;;;7.93;7.20;;;31.80;91.50;;;;;;5044144;28;20232;-66
2021/06/10 10:46:39;;;;;;;8.17;6.80;;;31.70;91.50;;;;;;5043733;28;20246;-66
2021/06/10 10:49:24;;;;;;;7.30;6.30;;;31.80;91.10;;;;;;5042871;28;20265;-66
2021/06/10 10:51:52;;;;;;;7.27;6.57;;;32.00;91.50;;;;;;5043075;28;20595;-67
2021/06/10 10:54:30;;;;;;;8.00;7.20;;;32.00;90.90;;;;;;5043864;28;20714;-66
2021/06/10 10:56:58;;;;;;;7.17;6.27;;;32.00;90.70;;;;;;5044226;28;20247;-66
2021/06/10 10:59:26;;;;;;;7.43;6.73;;;32.40;91.30;;;;;;5043425;28;20231;-66
2021/06/10 11:02:04;;;;;;;9.57;8.57;;;32.50;90.70;;;;;;5044128;28;20330;-66
2021/06/10 11:04:51;;;;;;;9.87;8.97;;;32.00;90.20;;;;;;5043599;28;20239;-67
2021/06/10 11:07:50;;;;;;;10.93;8.77;;;31.30;89.10;;;;;;5043955;28;20657;-66
2021/06/10 11:10:59;;;;;;;7.80;7.00;;;31.80;90.90;;;;;;5043831;28;20683;-66
2021/06/10 11:13:29;;;;;;;7.07;6.37;;;32.20;90.10;;;;;;5042850;28;20316;-66
2021/06/10 11:16:02;;;;;;;8.17;6.70;;;32.90;90.40;;;;;;5043863;28;20240;-67
2021/06/10 11:18:41;;;;;;;8.93;7.07;;;33.10;90.20;;;;;;5042932;28;20242;-66
2021/06/10 11:21:11;;;;;;;8.07;7.37;;;32.70;90.10;;;;;;5058491;28;20286;-66
2021/06/10 11:23:39;;;;;;;7.53;6.83;;;32.70;90.10;;;;;;5043247;28;20618;-66
2021/06/10 11:26:17;;;;;;;7.23;6.53;;;32.20;90.50;;;;;;5043600;28;20753;-66
2021/06/10 11:29:01;;;;;;;8.47;7.57;;;31.50;90.50;;;;;;5039777;28;20879;-66
2021/06/10 11:31:31;;;;;;;6.93;6.43;;;31.30;89.50;;;;;;5042894;28;20724;-66
2021/06/10 11:34:29;;;;;;;7.90;6.73;;;31.80;90.20;;;;;;5042925;28;20252;-66
2021/06/10 11:36:58;;;;;;;6.60;6.00;;;32.50;88.40;;;;;;5023549;28;20776;-66
2021/06/10 11:39:31;;;;;;;11.17;8.30;;;32.80;87.60;;;;;;5042150;28;20380;-67
2021/06/10 11:42:08;;;;;;;7.80;6.13;;;32.30;87.00;;;;;;5034438;28;20297;-66
2021/06/10 11:44:47;;;;;;;10.50;8.70;;;32.20;89.20;;;;;;5046235;28;20296;-66
2021/06/10 11:47:26;;;;;;;8.30;7.30;;;31.80;86.20;;;;;;5047075;28;20315;-66
2021/06/10 11:49:56;;;;;;;8.60;7.27;;;31.80;90.10;;;;;;5046835;28;20238;-66
2021/06/10 11:52:25;;;;;;;6.77;6.20;;;31.90;87.60;;;;;;5043519;28;20230;-66
2021/06/10 11:55:10;;;;;;;7.97;6.20;;;32.10;89.10;;;;;;5046619;28;20247;-67
2021/06/10 11:57:38;;;;;;;8.20;6.87;;;32.30;86.00;;;;;;5042982;28;20242;-66
2021/06/10 12:00:08;;;;;;;7.17;5.87;;;31.60;88.20;;;;;;5046867;28;20242;-66
2021/06/10 12:02:41;;;;;;;9.00;8.17;;;31.50;90.40;;;;;;5046948;28;20663;-66
2021/06/10 12:05:12;;;;;;;10.53;8.67;;;31.40;87.20;;;;;;5044834;28;20243;-66
2021/06/10 12:07:41;;;;;;;7.00;6.30;;;31.00;88.90;;;;;;5044427;28;20741;-66
2021/06/10 12:10:15;;;;;;;8.17;6.67;;;31.00;90.50;;;;;;5041595;28;20250;-67
2021/06/10 12:12:45;;;;;;;6.90;6.30;;;31.50;90.10;;;;;;5045125;28;20833;-67
2021/06/10 12:15:46;;;;;;;7.37;6.50;;;31.60;89.10;;;;;;5046110;28;20816;-67
2021/06/10 12:18:15;;;;;;;7.70;7.00;;;31.50;90.90;;;;;;4983452;28;20334;-67
2021/06/10 12:20:54;;;;;;;8.80;8.00;;;31.30;90.80;;;;;;5038474;28;20235;-67
2021/06/10 12:23:30;;;;;;;10.17;9.37;;;30.80;90.70;;;;;;5046783;28;20923;-66
2021/06/10 12:26:00;;;;;;;10.20;9.30;;;30.10;90.90;;;;;;5046125;28;20280;-66
2021/06/10 12:28:36;;;;;;;8.20;6.97;;;29.50;90.70;;;;;;5045828;28;20273;-67
2021/06/10 12:31:07;;;;;;;7.33;6.73;;;29.60;92.20;;;;;;5046404;28;20242;-66
2021/06/10 12:33:37;;;;;;;8.50;7.70;;;29.60;92.40;;;;;;5046429;28;20250;-67
2021/06/10 12:36:06;;;;;;;8.77;8.07;;;29.60;92.30;;;;;;5046590;28;20236;-67
2021/06/10 12:38:37;;;;;;;9.20;8.50;;;29.30;92.30;;;;;;5045949;28;20244;-67
2021/06/10 12:41:14;;;;;;;9.93;9.03;;;29.30;92.40;;;;;;5046587;28;20725;-67
2021/06/10 12:43:42;;;;;;;12.67;11.47;;;29.20;92.70;;;;;;5045971;28;20638;-67
2021/06/10 12:46:10;;;;;;;11.83;10.73;;;29.00;91.60;;;;;;5046500;28;20240;-67
2021/06/10 12:48:57;;;;;;;10.10;9.30;;;28.60;92.80;;;;;;5045947;28;20788;-66
2021/06/10 12:51:27;;;;;;;9.93;8.90;;;28.70;94.30;;;;;;5061576;28;20243;-67